Time;durP1;ratioP1;P1;durP2;ratioP2;P2;SDS_P1;SDS_P2;PMS_P1;PMS_P2;Temp;Humidity;BMP_temperature;BMP_pressure;BME280_temperature;BME280_humidity;BME280_pressure;Samples;Min_cycle;Max_cycle;Signal;HPM_P1;HPM_P2
2022/01/23 00:00:20;;;;;;;26.07;14.90;;;5.60;99.90;;;;;;5010288;28;20181;-58
2022/01/23 00:02:50;;;;;;;27.97;14.97;;;5.70;99.90;;;;;;5009308;28;20171;-58
2022/01/23 00:05:20;;;;;;;26.00;13.47;;;5.70;99.90;;;;;;5010225;28;20171;-58
2022/01/23 00:07:46;;;;;;;24.63;12.77;;;5.70;99.90;;;;;;5009973;28;20306;-58
2022/01/23 00:10:13;;;;;;;25.47;12.87;;;5.70;99.90;;;;;;5009761;28;20209;-58
2022/01/23 00:12:50;;;;;;;27.67;12.73;;;5.70;99.90;;;;;;5009563;28;20174;-59
2022/01/23 00:18:01;;;;;;;30.20;13.30;;;5.70;99.90;;;;;;5004589;28;20724;-58
2022/01/23 00:20:27;;;;;;;25.47;13.40;;;5.70;99.90;;;;;;5009877;28;20182;-58
2022/01/23 00:22:57;;;;;;;52.23;20.03;;;5.70;99.90;;;;;;5010340;28;20175;-58
2022/01/23 00:30:55;;;;;;;66.30;24.73;;;5.60;99.90;;;;;;5012675;28;20182;-57
2022/01/23 00:33:23;;;;;;;91.37;31.43;;;5.70;99.90;;;;;;5013648;28;20186;-58
2022/01/23 00:35:49;;;;;;;55.13;22.23;;;5.70;99.90;;;;;;5013643;28;20182;-58
2022/01/23 00:38:16;;;;;;;42.47;19.40;;;5.70;99.90;;;;;;5013233;28;20182;-58
2022/01/23 00:40:44;;;;;;;35.37;15.77;;;5.70;99.90;;;;;;5013110;28;20198;-58
2022/01/23 00:43:53;;;;;;;34.73;16.37;;;5.60;99.90;;;;;;5013663;28;20174;-58
2022/01/23 00:46:23;;;;;;;35.00;15.80;;;5.60;99.90;;;;;;5002616;28;20194;-58
2022/01/23 00:51:29;;;;;;;34.33;16.00;;;5.50;99.90;;;;;;5012874;28;20182;-57
2022/01/23 00:53:57;;;;;;;37.77;16.00;;;5.60;99.90;;;;;;5011503;28;20273;-58
2022/01/23 00:56:24;;;;;;;35.70;16.30;;;5.60;99.90;;;;;;5011960;28;20182;-57
2022/01/23 00:58:49;;;;;;;28.83;15.37;;;5.60;99.90;;;;;;5013194;28;20197;-58
2022/01/23 01:01:15;;;;;;;34.03;16.13;;;5.60;99.90;;;;;;5011790;28;20166;-57
2022/01/23 01:03:42;;;;;;;35.57;17.50;;;5.60;99.90;;;;;;5011891;28;20515;-58
2022/01/23 01:06:09;;;;;;;35.60;17.03;;;5.60;99.90;;;;;;5011757;28;20228;-57
2022/01/23 01:08:35;;;;;;;36.60;16.90;;;5.60;99.90;;;;;;5012721;28;20172;-58
2022/01/23 01:30:23;;;;;;;34.73;16.07;;;5.60;99.90;;;;;;5032528;28;20231;-57
2022/01/23 01:36:01;;;;;;;30.97;15.43;;;5.60;99.90;;;;;;5003899;28;20202;-57
2022/01/23 01:38:26;;;;;;;39.03;15.83;;;5.80;99.90;;;;;;5031604;28;20230;-57
2022/01/23 01:40:52;;;;;;;32.67;15.47;;;5.60;99.90;;;;;;5031318;28;21589;-57
2022/01/23 01:43:18;;;;;;;32.07;14.97;;;5.60;99.90;;;;;;5013335;28;20277;-57
2022/01/23 01:45:44;;;;;;;29.17;15.90;;;5.50;99.90;;;;;;5031896;28;20597;-57
2022/01/23 01:48:13;;;;;;;31.80;15.60;;;5.60;99.90;;;;;;5031683;28;20178;-57
2022/01/23 01:50:44;;;;;;;30.23;15.67;;;5.60;99.90;;;;;;5030976;28;20257;-57
2022/01/23 01:53:11;;;;;;;30.50;15.40;;;5.60;99.90;;;;;;5031744;28;20180;-56
2022/01/23 01:55:43;;;;;;;30.83;15.13;;;5.60;99.90;;;;;;5031918;28;20209;-57
2022/01/23 01:58:32;;;;;;;28.60;14.10;;;5.50;99.90;;;;;;5014173;28;20549;-58
2022/01/23 02:00:58;;;;;;;28.20;14.33;;;5.50;99.90;;;;;;5030775;28;20212;-57
2022/01/23 02:08:54;;;;;;;31.73;16.57;;;5.50;99.90;;;;;;5032094;28;20289;-57
2022/01/23 02:11:31;;;;;;;28.80;15.37;;;5.50;99.90;;;;;;5031643;28;20166;-57
2022/01/23 02:14:11;;;;;;;35.00;16.53;;;5.60;99.90;;;;;;5031515;28;20304;-58
2022/01/23 02:25:01;;;;;;;28.00;15.83;;;5.60;99.90;;;;;;5031848;28;20193;-57
2022/01/23 02:58:12;;;;;;;36.47;16.23;;;5.50;99.90;;;;;;5009329;28;20186;-57
2022/01/23 03:00:20;;;;;;;30.40;17.57;;;5.50;99.90;;;;;;5022302;28;20614;-58
2022/01/23 03:02:52;;;;;;;31.90;17.03;;;5.50;99.90;;;;;;5029762;28;20206;-58
2022/01/23 03:08:22;;;;;;;29.30;16.33;;;5.60;99.90;;;;;;5019330;28;20657;-58
2022/01/23 03:11:25;;;;;;;28.47;16.37;;;5.60;99.90;;;;;;5029660;28;20174;-57
2022/01/23 03:14:00;;;;;;;29.87;17.60;;;5.60;99.90;;;;;;5029235;28;20218;-57
2022/01/23 03:25:03;;;;;;;31.60;19.40;;;5.70;99.90;;;;;;5030615;28;20239;-57
2022/01/23 03:30:14;;;;;;;25.23;15.57;;;5.70;99.90;;;;;;5029669;28;20213;-57
2022/01/23 03:32:44;;;;;;;31.30;18.13;;;5.70;99.90;;;;;;5030285;28;20182;-57
2022/01/23 03:35:10;;;;;;;29.63;18.17;;;5.70;99.90;;;;;;5030323;28;20205;-57
2022/01/23 03:37:36;;;;;;;30.13;16.83;;;5.70;99.90;;;;;;5016969;28;20170;-57
2022/01/23 03:40:03;;;;;;;32.57;18.37;;;5.70;99.90;;;;;;5025327;28;20181;-57
2022/01/23 03:42:31;;;;;;;26.97;15.80;;;5.70;99.90;;;;;;5015227;28;20170;-57
2022/01/23 03:45:26;;;;;;;27.90;16.13;;;5.70;99.90;;;;;;5029933;28;20185;-57
2022/01/23 03:50:29;;;;;;;26.67;17.10;;;5.60;99.90;;;;;;5029943;28;20181;-57
2022/01/23 03:52:55;;;;;;;28.97;16.47;;;5.60;99.90;;;;;;5030409;28;20174;-57
2022/01/23 03:55:21;;;;;;;26.33;15.57;;;5.60;99.90;;;;;;5029648;28;20529;-57
2022/01/23 03:57:47;;;;;;;27.90;17.03;;;5.60;99.90;;;;;;5029518;28;20505;-57
2022/01/23 04:00:16;;;;;;;29.00;16.93;;;5.60;99.90;;;;;;5029670;28;20170;-57
2022/01/23 04:02:43;;;;;;;31.40;17.67;;;5.60;99.90;;;;;;5030209;28;20169;-58
2022/01/23 04:05:09;;;;;;;28.93;17.00;;;5.60;99.90;;;;;;5031444;28;20166;-56
2022/01/23 04:07:36;;;;;;;28.17;17.23;;;5.60;99.90;;;;;;5025710;28;20337;-56
2022/01/23 04:10:03;;;;;;;31.00;15.97;;;5.50;99.90;;;;;;5033812;28;20169;-56
2022/01/23 04:31:49;;;;;;;29.53;16.23;;;5.50;99.90;;;;;;5033481;28;20192;-56
2022/01/23 04:45:20;;;;;;;27.70;16.23;;;5.50;99.90;;;;;;5033300;28;20184;-57
2022/01/23 05:04:23;;;;;;;29.67;17.30;;;5.50;99.90;;;;;;5033192;28;20185;-57
2022/01/23 05:07:01;;;;;;;35.10;17.40;;;5.50;99.90;;;;;;5032872;28;20177;-56
2022/01/23 05:09:28;;;;;;;28.03;15.90;;;5.50;99.90;;;;;;5021896;28;20190;-57
2022/01/23 05:12:08;;;;;;;29.23;16.87;;;5.50;99.90;;;;;;5032358;28;20714;-56
2022/01/23 05:14:41;;;;;;;28.67;16.27;;;5.50;99.90;;;;;;5032234;28;20226;-57
2022/01/23 05:17:11;;;;;;;28.53;16.80;;;5.40;99.90;;;;;;5031883;28;20667;-57
2022/01/23 05:19:39;;;;;;;26.87;16.57;;;5.40;99.90;;;;;;5023315;28;20186;-57
2022/01/23 05:24:58;;;;;;;29.17;17.00;;;5.40;99.90;;;;;;5032320;28;20711;-56
2022/01/23 05:27:27;;;;;;;30.20;17.07;;;5.40;99.90;;;;;;5032544;28;20181;-57
2022/01/23 05:29:54;;;;;;;30.03;17.67;;;5.40;99.90;;;;;;5032424;28;20260;-56
2022/01/23 05:32:23;;;;;;;30.87;17.43;;;5.40;99.90;;;;;;5032486;28;20332;-56
2022/01/23 05:34:49;;;;;;;31.40;17.10;;;5.40;99.90;;;;;;5032365;28;20343;-56
2022/01/23 05:37:18;;;;;;;29.53;17.37;;;5.40;99.90;;;;;;5024729;28;20174;-56
2022/01/23 05:39:44;;;;;;;30.67;17.33;;;5.40;99.90;;;;;;5025549;28;20664;-56
2022/01/23 05:42:09;;;;;;;31.13;18.27;;;5.40;99.90;;;;;;5031937;28;20174;-56
2022/01/23 05:44:37;;;;;;;31.70;17.27;;;5.40;99.90;;;;;;5031526;28;20185;-56
2022/01/23 05:47:05;;;;;;;29.37;18.03;;;5.40;99.90;;;;;;5012480;28;20270;-56
2022/01/23 05:49:31;;;;;;;32.23;17.80;;;5.40;99.90;;;;;;5026629;28;20188;-56
2022/01/23 05:51:57;;;;;;;31.97;18.40;;;5.40;99.90;;;;;;5031682;28;20285;-56
2022/01/23 05:54:23;;;;;;;24.97;15.30;;;5.40;99.90;;;;;;5032047;28;20255;-56
2022/01/23 05:56:49;;;;;;;26.57;14.67;;;5.40;99.90;;;;;;5031973;28;20601;-56
2022/01/23 05:59:16;;;;;;;24.43;14.20;;;5.40;99.90;;;;;;5031943;28;20182;-56
2022/01/23 06:01:43;;;;;;;27.20;13.93;;;5.30;99.90;;;;;;5031558;28;20189;-55
2022/01/23 06:04:09;;;;;;;23.50;13.73;;;5.30;99.90;;;;;;5031946;28;20170;-55
2022/01/23 06:06:35;;;;;;;24.10;13.73;;;5.30;99.90;;;;;;5031708;28;20182;-55
2022/01/23 06:09:01;;;;;;;25.40;14.27;;;5.30;99.90;;;;;;5028674;28;20178;-57
2022/01/23 06:11:27;;;;;;;24.97;14.50;;;5.30;99.90;;;;;;5031828;28;20182;-57
2022/01/23 06:13:52;;;;;;;22.90;13.27;;;5.30;99.90;;;;;;5030811;28;20725;-56
2022/01/23 06:16:18;;;;;;;23.03;13.27;;;5.30;99.90;;;;;;5031040;28;20177;-58
2022/01/23 06:18:45;;;;;;;24.23;13.50;;;5.30;99.90;;;;;;5031539;28;20178;-58
2022/01/23 06:21:14;;;;;;;24.37;13.83;;;5.30;99.90;;;;;;5031234;28;20162;-58
2022/01/23 06:23:40;;;;;;;25.30;14.10;;;5.30;99.90;;;;;;5030342;28;20170;-58
2022/01/23 06:26:06;;;;;;;24.00;13.67;;;5.30;99.90;;;;;;5031549;28;20180;-56
2022/01/23 06:28:47;;;;;;;33.23;15.00;;;5.30;99.90;;;;;;5031456;28;20529;-57
2022/01/23 06:31:12;;;;;;;23.73;14.13;;;5.30;99.90;;;;;;5031316;28;20534;-57
2022/01/23 06:33:38;;;;;;;26.03;15.00;;;5.30;99.90;;;;;;5030859;28;20202;-57
2022/01/23 06:36:04;;;;;;;25.90;14.53;;;5.30;99.90;;;;;;5027386;28;20179;-57
2022/01/23 06:38:30;;;;;;;24.30;12.37;;;5.30;99.90;;;;;;5029907;28;20656;-57
2022/01/23 06:40:56;;;;;;;19.60;11.77;;;5.30;99.90;;;;;;5030725;28;20177;-56
2022/01/23 06:43:22;;;;;;;20.30;12.30;;;5.30;99.90;;;;;;5031087;28;20185;-56
2022/01/23 06:45:48;;;;;;;22.40;12.50;;;5.30;99.90;;;;;;5030488;28;20192;-60
2022/01/23 06:48:14;;;;;;;19.60;12.33;;;5.30;99.90;;;;;;5031182;28;20170;-57
2022/01/23 06:50:40;;;;;;;18.73;11.83;;;5.30;99.90;;;;;;5030169;28;20665;-56
2022/01/23 06:53:06;;;;;;;19.50;12.57;;;5.30;99.90;;;;;;5030915;28;20223;-57
2022/01/23 06:55:32;;;;;;;20.03;12.33;;;5.30;99.90;;;;;;5012921;28;20293;-58
2022/01/23 06:57:57;;;;;;;21.83;13.17;;;5.30;99.90;;;;;;5030226;28;20181;-59
2022/01/23 07:00:23;;;;;;;20.93;12.50;;;5.30;99.90;;;;;;5030516;28;20214;-59
2022/01/23 07:02:49;;;;;;;20.00;12.37;;;5.30;99.90;;;;;;5029591;28;20585;-59
2022/01/23 07:05:15;;;;;;;19.73;12.63;;;5.20;99.90;;;;;;5030354;28;20178;-59
2022/01/23 07:07:41;;;;;;;20.90;11.63;;;5.20;99.90;;;;;;5012811;28;20181;-58
2022/01/23 07:10:07;;;;;;;18.83;11.70;;;5.20;99.90;;;;;;5030691;28;20633;-59
2022/01/23 07:12:33;;;;;;;20.17;11.53;;;5.20;99.90;;;;;;5030705;28;20260;-58
2022/01/23 07:14:59;;;;;;;17.80;11.30;;;5.20;99.90;;;;;;5029227;28;20329;-58
2022/01/23 07:17:25;;;;;;;21.07;11.57;;;5.20;99.90;;;;;;5030379;28;20177;-58
2022/01/23 07:19:50;;;;;;;19.10;11.57;;;5.20;99.90;;;;;;5030200;28;20264;-58
2022/01/23 07:22:16;;;;;;;24.93;11.73;;;5.20;99.90;;;;;;5025161;28;20538;-58
2022/01/23 07:24:42;;;;;;;18.63;11.90;;;5.20;99.90;;;;;;5019652;28;20174;-58
2022/01/23 07:27:18;;;;;;;20.67;11.40;;;5.20;99.90;;;;;;5030238;28;20174;-58
2022/01/23 07:29:46;;;;;;;19.80;11.43;;;5.20;99.90;;;;;;5028938;28;20169;-58
2022/01/23 07:32:12;;;;;;;19.90;10.53;;;5.30;99.90;;;;;;5041195;28;20177;-58
2022/01/23 07:34:38;;;;;;;16.63;10.90;;;5.30;99.90;;;;;;5030193;28;20224;-58
2022/01/23 07:37:04;;;;;;;18.37;11.73;;;5.20;99.90;;;;;;5029571;28;20170;-56
2022/01/23 07:39:30;;;;;;;20.53;11.33;;;5.30;99.90;;;;;;5029742;28;20209;-59
2022/01/23 07:41:56;;;;;;;21.27;11.67;;;5.20;99.90;;;;;;5030100;28;20709;-56
2022/01/23 07:44:22;;;;;;;18.57;10.27;;;5.20;99.90;;;;;;5008711;28;20177;-56
2022/01/23 07:46:47;;;;;;;21.13;11.20;;;5.10;99.90;;;;;;5030087;28;20174;-55
2022/01/23 07:49:13;;;;;;;19.37;10.97;;;5.10;99.90;;;;;;5030111;28;20619;-56
2022/01/23 07:51:39;;;;;;;20.20;11.80;;;5.10;99.90;;;;;;5029955;28;20182;-55
2022/01/23 07:54:05;;;;;;;19.83;9.93;;;5.10;99.90;;;;;;5017801;28;20242;-55
2022/01/23 07:56:31;;;;;;;17.60;11.10;;;5.10;99.90;;;;;;5028891;28;20174;-56
2022/01/23 07:58:58;;;;;;;23.43;11.93;;;5.10;99.90;;;;;;5010895;28;20546;-56
2022/01/23 08:01:24;;;;;;;18.50;10.67;;;5.10;99.90;;;;;;5029820;28;20215;-56
2022/01/23 08:03:50;;;;;;;17.77;10.47;;;5.00;99.90;;;;;;5029738;28;20671;-56
2022/01/23 08:06:16;;;;;;;15.97;10.13;;;5.00;99.90;;;;;;5011534;28;20185;-56
2022/01/23 08:08:42;;;;;;;17.67;10.50;;;5.00;99.90;;;;;;5022572;28;20178;-56
2022/01/23 08:11:08;;;;;;;18.23;10.57;;;5.00;99.90;;;;;;5020986;28;20189;-58
2022/01/23 08:13:35;;;;;;;15.70;10.00;;;5.00;99.90;;;;;;5034374;28;20226;-59
2022/01/23 08:16:01;;;;;;;17.93;10.37;;;5.00;99.90;;;;;;5030160;28;20170;-57
2022/01/23 08:18:27;;;;;;;19.90;10.17;;;5.00;99.90;;;;;;5037281;28;20173;-56
2022/01/23 08:20:52;;;;;;;17.87;10.67;;;5.00;99.90;;;;;;5029831;28;20612;-58
2022/01/23 08:23:20;;;;;;;19.87;11.37;;;5.10;99.90;;;;;;5027785;28;20663;-58
2022/01/23 08:25:46;;;;;;;17.17;11.00;;;5.00;99.90;;;;;;5026895;28;20239;-59
2022/01/23 08:28:12;;;;;;;20.47;10.93;;;5.00;99.90;;;;;;5029861;28;20260;-59
2022/01/23 08:30:37;;;;;;;20.73;11.67;;;4.90;99.90;;;;;;5008801;28;20209;-58
2022/01/23 08:33:03;;;;;;;21.03;11.90;;;4.90;99.90;;;;;;5017120;28;20200;-59
2022/01/23 08:35:29;;;;;;;21.30;11.30;;;4.90;99.90;;;;;;5026025;28;20604;-58
2022/01/23 08:37:56;;;;;;;17.30;10.80;;;4.90;99.90;;;;;;5015481;28;20171;-58
2022/01/23 08:40:34;;;;;;;19.00;11.73;;;4.90;99.90;;;;;;5022341;28;20166;-58
2022/01/23 08:43:00;;;;;;;18.97;11.50;;;4.90;99.90;;;;;;5029285;28;20254;-55
2022/01/23 08:45:26;;;;;;;24.53;11.17;;;5.00;99.90;;;;;;5029937;28;20167;-57
2022/01/23 08:47:52;;;;;;;19.50;12.20;;;5.00;99.90;;;;;;5029877;28;20861;-57
2022/01/23 08:50:18;;;;;;;17.97;10.97;;;5.00;99.90;;;;;;5029151;28;20660;-58
2022/01/23 08:52:44;;;;;;;18.03;11.23;;;5.00;99.90;;;;;;5032083;28;20265;-58
2022/01/23 08:55:09;;;;;;;19.63;11.43;;;5.00;99.90;;;;;;5033108;28;20334;-59
2022/01/23 08:57:36;;;;;;;20.37;11.90;;;5.00;99.90;;;;;;5033426;28;20579;-58
2022/01/23 09:00:03;;;;;;;19.60;11.57;;;5.00;99.90;;;;;;5033153;28;20260;-58
2022/01/23 09:02:29;;;;;;;17.73;10.50;;;5.00;99.90;;;;;;5023781;28;20178;-58
2022/01/23 09:04:56;;;;;;;20.07;11.53;;;5.00;99.90;;;;;;5028430;28;20174;-59
2022/01/23 09:07:22;;;;;;;19.60;11.27;;;5.00;99.90;;;;;;5031954;28;20173;-58
2022/01/23 09:09:48;;;;;;;16.47;10.23;;;5.10;99.90;;;;;;5033059;28;20537;-59
2022/01/23 09:14:55;;;;;;;18.23;11.20;;;5.00;99.90;;;;;;5011460;28;20262;-59
2022/01/23 09:17:20;;;;;;;18.10;10.40;;;5.00;99.90;;;;;;5013024;28;20202;-60
2022/01/23 09:19:47;;;;;;;23.20;11.27;;;5.00;99.90;;;;;;5013252;28;20209;-59
2022/01/23 09:22:16;;;;;;;18.40;11.10;;;5.00;99.90;;;;;;5013326;28;20637;-60
2022/01/23 09:24:42;;;;;;;17.60;10.77;;;5.00;99.90;;;;;;5012962;28;20194;-59
2022/01/23 09:27:17;;;;;;;16.00;10.17;;;5.00;99.90;;;;;;5011948;28;20660;-60
2022/01/23 09:29:43;;;;;;;17.70;10.80;;;5.10;99.90;;;;;;4999800;28;20593;-60
2022/01/23 09:32:14;;;;;;;19.93;11.70;;;5.00;99.90;;;;;;5013181;28;20245;-60
2022/01/23 09:34:42;;;;;;;23.30;13.80;;;4.90;99.90;;;;;;5012228;28;20203;-59
2022/01/23 09:37:11;;;;;;;16.63;9.87;;;4.90;99.90;;;;;;5012932;28;20649;-59
2022/01/23 09:39:40;;;;;;;20.47;11.93;;;4.90;99.90;;;;;;4997227;28;20178;-59
2022/01/23 09:42:19;;;;;;;17.50;10.70;;;4.90;99.90;;;;;;4993582;28;20242;-59
2022/01/23 09:44:52;;;;;;;16.03;11.10;;;5.00;99.90;;;;;;4993504;28;20175;-60
2022/01/23 09:47:20;;;;;;;17.77;10.20;;;5.10;99.90;;;;;;5012053;28;20183;-59
2022/01/23 09:49:47;;;;;;;16.80;10.77;;;5.10;99.90;;;;;;5012226;28;20182;-60
2022/01/23 09:52:14;;;;;;;16.07;9.50;;;5.10;99.90;;;;;;5000008;28;20191;-60
2022/01/23 09:54:44;;;;;;;17.07;9.53;;;5.00;99.90;;;;;;4993386;28;20218;-60
2022/01/23 09:57:11;;;;;;;19.60;10.13;;;5.00;99.90;;;;;;5004064;28;20178;-60
2022/01/23 09:59:39;;;;;;;18.00;10.03;;;5.00;99.90;;;;;;5014367;28;20622;-60
2022/01/23 10:02:05;;;;;;;17.27;10.50;;;5.00;99.90;;;;;;5010248;28;20641;-60
2022/01/23 10:04:32;;;;;;;17.63;9.80;;;5.10;99.90;;;;;;5005760;28;20210;-60
2022/01/23 10:06:58;;;;;;;18.13;10.63;;;5.20;99.90;;;;;;5011927;28;20182;-56
2022/01/23 10:09:26;;;;;;;17.10;10.23;;;5.20;99.90;;;;;;5013683;28;20190;-56
2022/01/23 10:11:52;;;;;;;17.63;10.40;;;5.20;99.90;;;;;;5014198;28;20186;-56
2022/01/23 10:14:19;;;;;;;22.37;11.50;;;5.10;99.90;;;;;;5006926;28;20716;-56
2022/01/23 10:16:46;;;;;;;14.67;9.30;;;5.10;99.90;;;;;;5013669;28;20182;-58
2022/01/23 10:19:13;;;;;;;19.10;10.57;;;5.00;99.90;;;;;;5027145;28;20637;-60
2022/01/23 10:21:39;;;;;;;17.00;10.57;;;5.00;99.90;;;;;;5012198;28;20196;-57
2022/01/23 10:24:07;;;;;;;16.93;11.13;;;5.10;99.90;;;;;;5032210;28;20270;-57
2022/01/23 10:26:56;;;;;;;19.97;11.33;;;5.10;99.90;;;;;;5025981;28;20186;-61
2022/01/23 10:29:29;;;;;;;18.57;10.93;;;5.00;99.90;;;;;;5023274;28;20178;-59
2022/01/23 10:32:07;;;;;;;18.23;10.80;;;5.00;99.90;;;;;;5012047;28;20217;-58
2022/01/23 10:34:49;;;;;;;19.37;11.20;;;5.10;99.90;;;;;;5011768;28;20214;-58
2022/01/23 10:37:33;;;;;;;19.00;11.10;;;5.20;99.90;;;;;;5024057;28;20243;-59
2022/01/23 10:40:08;;;;;;;16.10;9.93;;;5.20;99.90;;;;;;5012014;28;20254;-58
2022/01/23 10:48:13;;;;;;;17.47;9.47;;;5.00;99.90;;;;;;5011988;28;20236;-57
2022/01/23 10:50:39;;;;;;;18.87;9.73;;;5.00;99.90;;;;;;5014768;28;20182;-57
2022/01/23 10:53:05;;;;;;;18.50;10.20;;;5.00;99.90;;;;;;5011511;28;20676;-57
2022/01/23 10:55:35;;;;;;;14.83;9.80;;;5.00;99.90;;;;;;5011274;28;20206;-58
2022/01/23 10:58:06;;;;;;;21.00;9.77;;;5.00;99.90;;;;;;5023636;28;20593;-59
2022/01/23 11:00:39;;;;;;;20.47;10.53;;;5.00;99.90;;;;;;5030735;28;20188;-58
2022/01/23 11:03:22;;;;;;;21.67;10.27;;;5.10;99.90;;;;;;5030117;28;20523;-58
2022/01/23 11:05:49;;;;;;;17.13;10.37;;;5.10;99.90;;;;;;5009396;28;20182;-58
2022/01/23 11:08:19;;;;;;;14.97;8.90;;;5.10;99.90;;;;;;5026735;28;20201;-58
2022/01/23 11:11:01;;;;;;;14.70;9.20;;;5.10;99.90;;;;;;5018175;28;20261;-59
2022/01/23 11:19:25;;;;;;;14.37;9.27;;;5.10;99.90;;;;;;5022022;28;20711;-58
2022/01/23 11:21:53;;;;;;;18.00;9.87;;;5.00;99.90;;;;;;5007030;28;20616;-58
2022/01/23 11:24:22;;;;;;;16.43;9.73;;;5.00;99.90;;;;;;5026742;28;20256;-58
2022/01/23 11:26:58;;;;;;;17.67;9.27;;;5.00;99.90;;;;;;5029569;28;20287;-56
2022/01/23 11:29:24;;;;;;;16.93;9.03;;;5.00;99.90;;;;;;5027231;28;20616;-58
2022/01/23 11:31:50;;;;;;;15.83;9.10;;;5.00;99.90;;;;;;5019499;28;20253;-59
2022/01/23 11:34:20;;;;;;;14.07;8.87;;;4.90;99.90;;;;;;5024305;28;20218;-59
2022/01/23 11:36:46;;;;;;;17.60;9.30;;;5.10;99.90;;;;;;5030220;28;20274;-58
2022/01/23 11:39:32;;;;;;;14.40;8.20;;;5.20;99.90;;;;;;5029374;28;20675;-59
2022/01/23 11:51:04;;;;;;;17.10;9.00;;;5.00;99.90;;;;;;5029905;28;20236;-58
2022/01/23 11:56:25;;;;;;;16.87;9.33;;;4.90;99.90;;;;;;5023626;28;20280;-61
2022/01/23 11:59:09;;;;;;;24.13;13.37;;;4.90;99.90;;;;;;5017379;28;20205;-58
2022/01/23 12:01:38;;;;;;;18.20;10.20;;;4.90;99.90;;;;;;5031041;28;20219;-58
2022/01/23 12:04:07;;;;;;;19.90;10.17;;;4.90;99.90;;;;;;5027062;28;20197;-58
2022/01/23 12:06:39;;;;;;;17.17;10.20;;;5.00;99.90;;;;;;5029841;28;20235;-58
2022/01/23 12:09:16;;;;;;;21.17;11.60;;;5.00;99.90;;;;;;5025227;28;20204;-57
2022/01/23 12:12:27;;;;;;;21.03;12.07;;;5.00;99.90;;;;;;5020410;28;20189;-59
2022/01/23 12:18:13;;;;;;;18.00;11.13;;;5.10;99.90;;;;;;5022440;28;20655;-58
2022/01/23 12:20:40;;;;;;;21.60;11.97;;;5.20;99.90;;;;;;5024990;28;20170;-58
2022/01/23 12:23:06;;;;;;;19.50;12.37;;;5.20;99.90;;;;;;5015357;28;20737;-58
2022/01/23 12:25:41;;;;;;;22.83;11.17;;;5.30;99.90;;;;;;5012534;28;20182;-59
2022/01/23 12:28:28;;;;;;;21.30;11.73;;;5.10;99.90;;;;;;5024960;28;20267;-59
2022/01/23 12:31:00;;;;;;;19.57;10.60;;;5.10;99.90;;;;;;5033969;28;20172;-59
2022/01/23 12:33:52;;;;;;;20.13;12.03;;;5.00;99.90;;;;;;5033517;28;20232;-59
2022/01/23 12:36:19;;;;;;;22.77;13.23;;;5.10;99.90;;;;;;5025505;28;20201;-59
2022/01/23 12:38:48;;;;;;;21.73;12.90;;;5.20;99.90;;;;;;5033871;28;20189;-59
2022/01/23 12:41:29;;;;;;;27.73;13.90;;;5.20;99.90;;;;;;5033664;28;20637;-59
2022/01/23 12:44:26;;;;;;;23.90;13.20;;;5.30;99.90;;;;;;5033186;28;20173;-59
2022/01/23 12:46:58;;;;;;;26.20;13.70;;;5.30;99.90;;;;;;5032088;28;20225;-57
2022/01/23 12:49:31;;;;;;;24.03;14.37;;;5.20;99.90;;;;;;5032475;28;20174;-56
2022/01/23 12:52:05;;;;;;;22.40;14.70;;;5.30;99.90;;;;;;5032577;28;20243;-57
2022/01/23 12:54:51;;;;;;;25.03;14.57;;;6.40;99.90;;;;;;5033284;28;20213;-57
2022/01/23 12:57:34;;;;;;;26.73;14.63;;;5.40;99.90;;;;;;5032734;28;20180;-58
2022/01/23 13:00:03;;;;;;;29.13;15.23;;;5.40;99.90;;;;;;5033114;28;20190;-58
2022/01/23 13:02:38;;;;;;;22.53;14.93;;;5.20;99.90;;;;;;5033060;28;20213;-58
2022/01/23 13:05:05;;;;;;;26.70;14.90;;;5.10;99.90;;;;;;5013748;28;20178;-58
2022/01/23 13:15:39;;;;;;;26.70;15.43;;;5.40;99.90;;;;;;5033032;28;20249;-58
2022/01/23 13:32:07;;;;;;;24.33;14.27;;;5.10;99.90;;;;;;5032967;28;20184;-58
2022/01/23 13:34:41;;;;;;;25.33;14.87;;;5.20;99.90;;;;;;5018798;28;20739;-58
2022/01/23 13:37:14;;;;;;;28.73;16.00;;;5.20;99.90;;;;;;5044620;28;20182;-58
2022/01/23 13:39:48;;;;;;;37.17;17.20;;;5.20;99.90;;;;;;5035018;28;20256;-58
2022/01/23 13:48:33;;;;;;;27.60;15.77;;;5.30;99.90;;;;;;5025224;28;20232;-58
2022/01/23 13:59:27;;;;;;;31.77;19.10;;;5.30;99.90;;;;;;5031978;28;20625;-58
2022/01/23 14:04:27;;;;;;;32.30;18.40;;;5.20;99.90;;;;;;5031525;28;20293;-57
2022/01/23 14:06:53;;;;;;;34.93;21.03;;;5.30;99.90;;;;;;5031600;28;20194;-57
2022/01/23 14:09:20;;;;;;;34.20;21.43;;;5.30;99.90;;;;;;5029325;28;20177;-57
2022/01/23 14:11:47;;;;;;;39.00;22.67;;;5.30;99.90;;;;;;5012765;28;20182;-57
2022/01/23 14:14:26;;;;;;;40.53;22.07;;;5.10;99.90;;;;;;5028635;28;20249;-61
2022/01/23 14:16:54;;;;;;;35.43;21.63;;;5.20;99.90;;;;;;5030767;28;20174;-68
2022/01/23 14:19:22;;;;;;;36.33;21.40;;;5.20;99.90;;;;;;5030575;28;20166;-68
2022/01/23 14:21:59;;;;;;;40.57;24.00;;;5.30;99.90;;;;;;5031429;28;20220;-69
2022/01/23 14:24:33;;;;;;;42.03;24.37;;;5.00;99.90;;;;;;5031204;28;20205;-69
2022/01/23 14:27:08;;;;;;;41.50;24.00;;;5.00;99.90;;;;;;5031193;28;20182;-67
2022/01/23 14:29:47;;;;;;;39.83;22.77;;;5.00;99.90;;;;;;5031198;28;20225;-68
2022/01/23 14:32:34;;;;;;;43.73;24.67;;;5.10;99.90;;;;;;5027740;28;20170;-68
2022/01/23 14:35:07;;;;;;;45.40;24.60;;;5.30;99.90;;;;;;5013271;28;20335;-68
2022/01/23 14:37:33;;;;;;;44.23;25.37;;;5.30;99.90;;;;;;5030836;28;20250;-68
2022/01/23 14:40:21;;;;;;;44.90;24.10;;;5.30;99.90;;;;;;5013668;28;20182;-68
2022/01/23 14:42:57;;;;;;;47.53;26.13;;;5.40;99.90;;;;;;5029490;28;20162;-67
2022/01/23 14:45:23;;;;;;;42.90;25.80;;;5.30;99.90;;;;;;5031066;28;20640;-68
2022/01/23 14:47:50;;;;;;;46.50;26.50;;;5.20;99.90;;;;;;5030521;28;20197;-69
2022/01/23 14:50:19;;;;;;;48.17;26.03;;;5.20;99.90;;;;;;5029729;28;20177;-69
2022/01/23 14:52:47;;;;;;;47.13;25.33;;;5.20;99.90;;;;;;5026171;28;20170;-68
2022/01/23 14:55:12;;;;;;;44.87;26.47;;;5.30;99.90;;;;;;5012693;28;20277;-68
2022/01/23 14:57:40;;;;;;;43.07;25.93;;;5.30;99.90;;;;;;5005043;28;20312;-68
2022/01/23 15:00:09;;;;;;;41.63;25.67;;;5.30;99.90;;;;;;5020419;28;20287;-69
2022/01/23 15:02:35;;;;;;;46.27;26.67;;;5.30;99.90;;;;;;5030087;28;20418;-69
2022/01/23 15:05:03;;;;;;;48.07;26.00;;;5.30;99.90;;;;;;5012824;28;20939;-69
2022/01/23 15:07:41;;;;;;;46.90;26.30;;;5.30;99.90;;;;;;5012237;28;20731;-69
2022/01/23 15:10:09;;;;;;;47.30;25.23;;;5.30;99.90;;;;;;5012910;28;20178;-68
2022/01/23 15:12:35;;;;;;;47.87;26.30;;;5.30;99.90;;;;;;5030169;28;20170;-68
2022/01/23 15:15:03;;;;;;;53.17;28.90;;;5.30;99.90;;;;;;5029444;28;20271;-69
2022/01/23 15:17:28;;;;;;;45.37;26.87;;;5.30;99.90;;;;;;5029219;28;20182;-69
2022/01/23 15:19:54;;;;;;;45.37;27.47;;;5.20;99.90;;;;;;5010852;28;20170;-68
2022/01/23 15:22:22;;;;;;;47.20;27.47;;;5.20;99.90;;;;;;5022704;28;20723;-68
2022/01/23 15:24:48;;;;;;;47.70;28.07;;;5.20;99.90;;;;;;5010916;28;20178;-68
2022/01/23 15:27:16;;;;;;;49.63;28.57;;;5.20;99.90;;;;;;5026586;28;20180;-69
2022/01/23 15:29:43;;;;;;;48.37;28.30;;;5.30;99.90;;;;;;5029815;28;20181;-69
2022/01/23 15:32:09;;;;;;;52.63;28.60;;;5.20;99.90;;;;;;5030216;28;20184;-69
2022/01/23 15:34:36;;;;;;;43.77;26.63;;;5.30;99.90;;;;;;5013497;28;20202;-70
2022/01/23 15:37:04;;;;;;;48.17;27.90;;;5.30;99.90;;;;;;5019011;28;20197;-68
2022/01/23 15:39:31;;;;;;;46.27;28.43;;;5.30;99.90;;;;;;5030038;28;20182;-68
2022/01/23 15:41:57;;;;;;;42.63;26.43;;;5.40;99.90;;;;;;5027294;28;20185;-65
2022/01/23 15:44:23;;;;;;;58.47;32.47;;;5.40;99.90;;;;;;5028077;28;20187;-67
2022/01/23 15:46:50;;;;;;;50.63;28.70;;;5.30;99.90;;;;;;5019383;28;20189;-66
2022/01/23 15:49:17;;;;;;;48.27;27.90;;;5.40;99.90;;;;;;5025548;28;20227;-66
2022/01/23 15:51:47;;;;;;;49.50;29.07;;;5.30;99.90;;;;;;5028247;28;20666;-66
2022/01/23 15:54:14;;;;;;;50.40;28.93;;;5.30;99.90;;;;;;5012439;28;20336;-65
2022/01/23 15:56:40;;;;;;;48.20;28.93;;;5.40;99.90;;;;;;5026728;28;20185;-66
2022/01/23 15:59:06;;;;;;;50.27;28.90;;;5.40;99.90;;;;;;5030051;28;20173;-65
2022/01/23 16:01:32;;;;;;;58.90;29.50;;;5.40;99.90;;;;;;5033758;28;20227;-65
2022/01/23 16:03:58;;;;;;;49.20;29.23;;;5.30;99.90;;;;;;5024138;28;20256;-65
2022/01/23 16:06:23;;;;;;;49.60;28.20;;;5.20;99.90;;;;;;5033388;28;20208;-65
2022/01/23 16:08:50;;;;;;;51.30;29.03;;;5.20;99.90;;;;;;5034208;28;20577;-68
2022/01/23 16:11:15;;;;;;;45.30;28.40;;;5.30;99.90;;;;;;5035568;28;20180;-67
2022/01/23 16:13:41;;;;;;;46.23;27.73;;;5.30;99.90;;;;;;5034492;28;20306;-67
2022/01/23 16:16:07;;;;;;;49.47;27.43;;;5.30;99.90;;;;;;5035032;28;20209;-67
2022/01/23 16:18:33;;;;;;;48.50;27.40;;;5.20;99.90;;;;;;5035099;28;20213;-67
2022/01/23 16:20:59;;;;;;;49.83;27.13;;;5.20;99.90;;;;;;5036541;28;20172;-68